ADDS TAF Board (Experimental) INFO Settings
IDs: Format: Expanded Condensed

KORD - Chicago/O'Hare Intl, IL, US

Issued at 1122 UTC 03 Jul 2015
Updated at: 1219 UTC 03 Jul 2015
Time1151Z 03/13Z 03/14Z 03/15Z 03/16Z 03/17Z 03/18Z 03/19Z 03/20Z 03/21Z 03/22Z 03/23Z 04/00Z 04/01Z
Type OBS PRVL PRVL PRVL PRVL PRVL PRVL PRVL PRVL PRVL PRVL PRVL PRVL PRVL
VIS 10 >6 >6 >6 >6 >6 >6 >6 >6 >6 >6 >6 >6 >6
CIG 240 250 250 250 250 250 -- -- -- -- -- -- -- --
Cover BKN OVC OVC OVC OVC OVC SCT SCT SCT SCT SCT SCT SCT FEW
FltCat VFR VFR VFR VFR VFR VFR VFR VFR VFR VFR VFR VFR VFR VFR
WX -- -- -- -- -- -- -- -- -- -- -- -- -- --
WDir 10 40 40 40 40 40 60 60 60 60 60 60 60 100
WSpd 3 6 6 6 6 6 9 9 9 9 9 9 9 3
WGst -- -- -- -- -- -- -- -- -- -- -- -- -- --
R04/22
XWnd 1 -0 -0 -0 -0 -0 -3 -3 -3 -3 -3 -3 -3 -3
HWnd 3 6 6 6 6 6 8 8 8 8 8 8 8 1
R09/27
XWnd 3 5 5 5 5 5 4 4 4 4 4 4 4 -1
HWnd 1 4 4 4 4 4 8 8 8 8 8 8 8 3
R10/28
XWnd 3 5 5 5 5 5 4 4 4 4 4 4 4 -1
HWnd 1 4 4 4 4 4 8 8 8 8 8 8 8 3
R14/32
XWnd 2 6 6 6 6 6 9 9 9 9 9 9 9 2
HWnd -2 -1 -1 -1 -1 -1 2 2 2 2 2 2 2 2

NOTE: TEMPO conditions in [brackets]. Keep in mind TEMPO conditions might be better (lower impact) than prevailing conditions.

Raw TAF
KORD 031122Z 0312/0418 04006KT P6SM OVC250
  FM031800 06009KT P6SM FEW035 SCT250
  FM040100 10003KT P6SM FEW250
  FM040800 23004KT P6SM FEW250


Raw METAR
KORD 031151Z 01003KT 10SM BKN240 15/12 A2998 RMK AO2 SLP150 T01500122 10150 20128 53005
KORD 031051Z 36005KT 10SM BKN220 14/11 A2996 RMK AO2 SLP146 T01390111
KORD 030951Z 34004KT 10SM OVC250 13/11 A2996 RMK AO2 SLP145 T01330106

METAR Board
Radar Display
Forecast Discussion

TAF Board Legend

Potential Impact
Threat None Slight Moderate High
Visibility (sm) ≥5.1 5.1>X≥3 3>X≥1 <1
Ceiling (100 ft) ≥30.1 30.1>X≥10 10>X≥5 <5
Wind Speed (kt) <10 10≤X<20 20≤X<30 ≥30
Wind Gust (kt) <15 15≤X<25 25≤X<35 ≥35
Weather No Wx Reported VCTS,-TS,-FZRA,SN TS,FZRA +TS,+FZRA,+SN